Talia H — 8PAM9 — position and weather

sailwx.info

Track history (hours):
 
Tides and Currents Weather Stations Pressure Air Temp Water Temp Dewpoint Dewpoint Depression Visibility Wind Speed Wind Dir Waves Ship Positions

Talia H

Last reported at 2018-Aug-04 09:51 UTC. Time now 2018-Aug-14 19:26 UTC.
Position N 26°18' W 116°13'.
Warning: this ship's position is 10 days out of date.

Length 140 m; draft 7.6 m.

Type: Cargo ship. MMSI: 314440000.

Date/timePositionNaut miles runAvg speedWind from/ knotsBaromVisibWave heightAir tempDewpointWater temp
2018-Aug-04 09:51N 26°18' W 116°13'2114.0
2018-Aug-04 08:22N 26°31' W 116°31'513.8
2018-Aug-04 08:00N 26°34' W 116°35'813.6
2018-Aug-04 07:27N 26°39' W 116°42'9113.9
2018-Aug-04 00:53N 27°39' W 117°60'512.8
2018-Aug-04 00:30N 27°42' W 118°04'912.8
2018-Aug-03 23:46N 27°48' W 118°12'512.8
2018-Aug-03 23:25N 27°51' W 118°16'513.0
2018-Aug-03 23:00N 27°54' W 118°21'2213.3
2018-Aug-03 21:21N 28°09' W 118°40'613.7
2018-Aug-03 20:55N 28°12' W 118°45'613.6
2018-Aug-03 20:30N 28°16' W 118°50'2113.3
2018-Aug-03 18:57N 28°29' W 119°08'613.6
2018-Aug-03 18:30N 28°33' W 119°13'713.5
2018-Aug-03 17:59N 28°38' W 119°19'913.8
2018-Aug-03 17:22N 28°43' W 119°26'514.1
2018-Aug-03 17:00N 28°47' W 119°31'714.3
2018-Aug-03 16:30N 28°51' W 119°37'714.0
2018-Aug-03 16:01N 28°56' W 119°43'713.2
2018-Aug-03 15:31N 28°60' W 119°49'713.1
2018-Aug-03 15:00N 29°04' W 119°55'713.2
2018-Aug-03 14:31N 29°08' W 120°00'713.3
2018-Aug-03 14:00N 29°13' W 120°06'713.5
2018-Aug-03 13:30N 29°18' W 120°12'713.6
2018-Aug-03 12:59N 29°22' W 120°18'613.4
2018-Aug-03 12:30N 29°26' W 120°24'713.5
2018-Aug-03 12:01N 29°30' W 120°30'713.4
2018-Aug-03 11:30N 29°35' W 120°35'713.3
2018-Aug-03 11:00N 29°39' W 120°41'713.3
2018-Aug-03 10:30N 29°43' W 120°47'713.7
2018-Aug-03 10:01N 29°48' W 120°53'713.6
2018-Aug-03 09:29N 29°52' W 120°59'713.7
2018-Aug-03 09:00N 29°57' W 121°05'713.6
2018-Aug-03 08:30N 30°01' W 121°11'713.5
2018-Aug-03 08:00N 30°05' W 121°17'713.5
2018-Aug-03 07:30N 30°10' W 121°23'713.2
2018-Aug-03 07:01N 30°14' W 121°29'713.1
2018-Aug-03 06:27N 30°19' W 121°35'2013.3
2018-Aug-03 04:58N 30°31' W 121°53'613.5
2018-Aug-03 04:31N 30°35' W 121°58'713.4
2018-Aug-03 04:00N 30°40' W 122°04'713.5
2018-Aug-03 03:31N 30°44' W 122°10'713.3
2018-Aug-03 02:58N 30°49' W 122°16'613.5
2018-Aug-03 02:30N 30°53' W 122°22'713.6
2018-Aug-03 01:58N 30°58' W 122°29'613.3
2018-Aug-03 01:30N 31°02' W 122°34'913.4
2018-Aug-03 00:48N 31°08' W 122°43'413.4
2018-Aug-03 00:29N 31°10' W 122°47'613.3
2018-Aug-03 00:00N 31°14' W 122°52'813.3
2018-Aug-02 23:23N 31°20' W 122°59'513.1
2018-Aug-02 22:58N 31°23' W 123°04'613.2
2018-Aug-02 22:30N 31°27' W 123°10'3413.1
2018-Aug-02 19:55N 31°51' W 123°38'1213.3
2018-Aug-02 18:59N 32°01' W 123°47'913.3
2018-Aug-02 18:18N 32°08' W 123°53'413.5
2018-Aug-02 18:00N 32°11' W 123°56'2213.6
2018-Aug-02 16:22N 32°30' W 124°10'513.7
2018-Aug-02 16:00N 32°35' W 124°13'913.6
2018-Aug-02 15:21N 32°42' W 124°19'513.5
2018-Aug-02 15:00N 32°46' W 124°22'1613.5
2018-Aug-02 13:51N 32°59' W 124°32'513.4
2018-Aug-02 13:30N 33°03' W 124°35'1113.4
2018-Aug-02 12:40N 33°13' W 124°41'7613.3
2018-Aug-02 06:56N 34°18' W 125°30'11513.5
2018-Aug-01 22:26N 35°56' W 126°44'813.8
2018-Aug-01 21:52N 36°02' W 126°49'9813.4
2018-Aug-01 14:33N 37°26' W 127°53'113.3
2018-Aug-01 14:29N 37°27' W 127°53'2013.0
2018-Aug-01 12:56N 37°46' W 128°01'51411.9
2018-Jul-30 17:48N 46°14' W 126°19'412.8
2018-Jul-30 17:30N 46°16' W 126°14'612.9
2018-Jul-30 17:01N 46°18' W 126°05'713.2
2018-Jul-30 16:30N 46°21' W 125°56'713.4
2018-Jul-30 16:00N 46°24' W 125°48'913.1
2018-Jul-30 15:21N 46°27' W 125°36'513.4
2018-Jul-30 15:00N 46°29' W 125°30'713.1
2018-Jul-30 14:31N 46°32' W 125°21'612.8
2018-Jul-30 14:00N 46°34' W 125°13'612.7
2018-Jul-30 13:30N 46°37' W 125°04'612.9
2018-Jul-30 13:00N 46°39' W 124°56'613.0
2018-Jul-30 12:31N 46°42' W 124°47'713.2
2018-Jul-30 12:01N 46°45' W 124°38'713.2
2018-Jul-30 11:30N 46°47' W 124°29'713.2
2018-Jul-30 11:00N 46°50' W 124°21'611.8
2018-Jul-30 10:30N 46°53' W 124°13'4 8.8
2018-Jul-30 10:01N 46°55' W 124°07'4 8.9
2018-Jul-30 09:30N 46°56' W 124°01'5 9.0
2018-Jul-30 08:55N 46°58' W 123°54'2 2.0
2018-Jul-30 07:57N 46°58' W 123°51'  
Track history (hours):
 
Tides and Currents Weather Stations Pressure Air Temp Water Temp Dewpoint Dewpoint Depression Visibility Wind Speed Wind Dir Waves Ship Positions

Talia H

Last reported at 2018-Aug-04 09:51 UTC. Time now 2018-Aug-14 19:26 UTC.
Position N 26°18' W 116°13'.
Warning: this ship's position is 10 days out of date.

Length 140 m; draft 7.6 m.

Type: Cargo ship. MMSI: 314440000.

Date/timePositionNaut miles runAvg speedWind from/ knotsBaromVisibWave heightAir tempDewpointWater temp
2018-Aug-04 09:51N 26°18' W 116°13'2114.0
2018-Aug-04 08:22N 26°31' W 116°31'513.8
2018-Aug-04 08:00N 26°34' W 116°35'813.6
2018-Aug-04 07:27N 26°39' W 116°42'9113.9
2018-Aug-04 00:53N 27°39' W 117°60'512.8
2018-Aug-04 00:30N 27°42' W 118°04'912.8
2018-Aug-03 23:46N 27°48' W 118°12'512.8
2018-Aug-03 23:25N 27°51' W 118°16'513.0
2018-Aug-03 23:00N 27°54' W 118°21'2213.3
2018-Aug-03 21:21N 28°09' W 118°40'613.7
2018-Aug-03 20:55N 28°12' W 118°45'613.6
2018-Aug-03 20:30N 28°16' W 118°50'2113.3
2018-Aug-03 18:57N 28°29' W 119°08'613.6
2018-Aug-03 18:30N 28°33' W 119°13'713.5
2018-Aug-03 17:59N 28°38' W 119°19'913.8
2018-Aug-03 17:22N 28°43' W 119°26'514.1
2018-Aug-03 17:00N 28°47' W 119°31'714.3
2018-Aug-03 16:30N 28°51' W 119°37'714.0
2018-Aug-03 16:01N 28°56' W 119°43'713.2
2018-Aug-03 15:31N 28°60' W 119°49'713.1
2018-Aug-03 15:00N 29°04' W 119°55'713.2
2018-Aug-03 14:31N 29°08' W 120°00'713.3
2018-Aug-03 14:00N 29°13' W 120°06'713.5
2018-Aug-03 13:30N 29°18' W 120°12'713.6
2018-Aug-03 12:59N 29°22' W 120°18'613.4
2018-Aug-03 12:30N 29°26' W 120°24'713.5
2018-Aug-03 12:01N 29°30' W 120°30'713.4
2018-Aug-03 11:30N 29°35' W 120°35'713.3
2018-Aug-03 11:00N 29°39' W 120°41'713.3
2018-Aug-03 10:30N 29°43' W 120°47'713.7
2018-Aug-03 10:01N 29°48' W 120°53'713.6
2018-Aug-03 09:29N 29°52' W 120°59'713.7
2018-Aug-03 09:00N 29°57' W 121°05'713.6
2018-Aug-03 08:30N 30°01' W 121°11'713.5
2018-Aug-03 08:00N 30°05' W 121°17'713.5
2018-Aug-03 07:30N 30°10' W 121°23'713.2
2018-Aug-03 07:01N 30°14' W 121°29'713.1
2018-Aug-03 06:27N 30°19' W 121°35'2013.3
2018-Aug-03 04:58N 30°31' W 121°53'613.5
2018-Aug-03 04:31N 30°35' W 121°58'713.4
2018-Aug-03 04:00N 30°40' W 122°04'713.5
2018-Aug-03 03:31N 30°44' W 122°10'713.3
2018-Aug-03 02:58N 30°49' W 122°16'613.5
2018-Aug-03 02:30N 30°53' W 122°22'713.6
2018-Aug-03 01:58N 30°58' W 122°29'613.3
2018-Aug-03 01:30N 31°02' W 122°34'913.4
2018-Aug-03 00:48N 31°08' W 122°43'413.4
2018-Aug-03 00:29N 31°10' W 122°47'613.3
2018-Aug-03 00:00N 31°14' W 122°52'813.3
2018-Aug-02 23:23N 31°20' W 122°59'513.1
2018-Aug-02 22:58N 31°23' W 123°04'613.2
2018-Aug-02 22:30N 31°27' W 123°10'3413.1
2018-Aug-02 19:55N 31°51' W 123°38'1213.3
2018-Aug-02 18:59N 32°01' W 123°47'913.3
2018-Aug-02 18:18N 32°08' W 123°53'413.5
2018-Aug-02 18:00N 32°11' W 123°56'2213.6
2018-Aug-02 16:22N 32°30' W 124°10'513.7
2018-Aug-02 16:00N 32°35' W 124°13'913.6
2018-Aug-02 15:21N 32°42' W 124°19'513.5
2018-Aug-02 15:00N 32°46' W 124°22'1613.5
2018-Aug-02 13:51N 32°59' W 124°32'513.4
2018-Aug-02 13:30N 33°03' W 124°35'1113.4
2018-Aug-02 12:40N 33°13' W 124°41'7613.3
2018-Aug-02 06:56N 34°18' W 125°30'11513.5
2018-Aug-01 22:26N 35°56' W 126°44'813.8
2018-Aug-01 21:52N 36°02' W 126°49'9813.4
2018-Aug-01 14:33N 37°26' W 127°53'113.3
2018-Aug-01 14:29N 37°27' W 127°53'2013.0
2018-Aug-01 12:56N 37°46' W 128°01'51411.9
2018-Jul-30 17:48N 46°14' W 126°19'412.8
2018-Jul-30 17:30N 46°16' W 126°14'612.9
2018-Jul-30 17:01N 46°18' W 126°05'713.2
2018-Jul-30 16:30N 46°21' W 125°56'713.4
2018-Jul-30 16:00N 46°24' W 125°48'913.1
2018-Jul-30 15:21N 46°27' W 125°36'513.4
2018-Jul-30 15:00N 46°29' W 125°30'713.1
2018-Jul-30 14:31N 46°32' W 125°21'612.8
2018-Jul-30 14:00N 46°34' W 125°13'612.7
2018-Jul-30 13:30N 46°37' W 125°04'612.9
2018-Jul-30 13:00N 46°39' W 124°56'613.0
2018-Jul-30 12:31N 46°42' W 124°47'713.2
2018-Jul-30 12:01N 46°45' W 124°38'713.2
2018-Jul-30 11:30N 46°47' W 124°29'713.2
2018-Jul-30 11:00N 46°50' W 124°21'611.8
2018-Jul-30 10:30N 46°53' W 124°13'4 8.8
2018-Jul-30 10:01N 46°55' W 124°07'4 8.9
2018-Jul-30 09:30N 46°56' W 124°01'5 9.0
2018-Jul-30 08:55N 46°58' W 123°54'2 2.0
2018-Jul-30 07:57N 46°58' W 123°51'  

Dump ship's entire track history